Time;durP1;ratioP1;P1;durP2;ratioP2;P2;SDS_P1;SDS_P2;PMS_P1;PMS_P2;Temp;Humidity;BMP_temperature;BMP_pressure;BME280_temperature;BME280_humidity;BME280_pressure;Samples;Min_cycle;Max_cycle;Signal;HPM_P1;HPM_P2
2023/09/12 00:04:53;;;;;;;12.87;9.53;;;21.80;99.90;;;;;;10353301;28;20627;-80
2023/09/12 00:15:04;;;;;;;13.57;9.17;;;21.80;99.90;;;;;;10298929;28;20284;-83
2023/09/12 00:20:08;;;;;;;12.10;9.10;;;21.80;99.90;;;;;;10303808;28;20224;-82
2023/09/12 00:25:10;;;;;;;10.10;8.70;;;21.70;99.90;;;;;;10269322;28;20201;-82
2023/09/12 00:30:16;;;;;;;10.30;8.43;;;21.70;99.90;;;;;;10283399;28;20204;-82
2023/09/12 00:35:18;;;;;;;10.27;9.33;;;21.70;99.90;;;;;;10267428;28;20572;-82
2023/09/12 00:40:20;;;;;;;11.10;8.60;;;21.60;99.90;;;;;;10291021;28;20232;-80
2023/09/12 00:45:23;;;;;;;10.33;9.43;;;21.50;99.90;;;;;;10293147;28;20243;-82
2023/09/12 00:50:26;;;;;;;10.63;9.40;;;21.50;99.90;;;;;;10291092;28;20239;-82
2023/09/12 00:55:32;;;;;;;10.37;9.40;;;21.50;99.90;;;;;;10295672;28;20233;-82
2023/09/12 01:00:35;;;;;;;10.90;9.80;;;21.50;99.90;;;;;;10251985;28;20239;-83
2023/09/12 01:05:38;;;;;;;10.37;9.30;;;21.50;99.90;;;;;;10266012;28;20205;-82
2023/09/12 01:10:46;;;;;;;10.00;9.00;;;21.40;99.90;;;;;;10289441;28;20216;-83
2023/09/12 01:15:49;;;;;;;13.17;9.40;;;21.40;99.90;;;;;;10318802;28;20238;-82
2023/09/12 01:21:18;;;;;;;12.03;9.23;;;21.40;99.90;;;;;;10305014;28;20223;-82
2023/09/12 01:26:30;;;;;;;10.17;9.20;;;21.40;99.90;;;;;;10287296;28;20208;-82
2023/09/12 01:31:35;;;;;;;9.60;8.80;;;21.30;99.90;;;;;;10301144;28;20274;-82
2023/09/12 01:36:38;;;;;;;10.40;9.30;;;21.30;99.90;;;;;;10321045;28;20298;-82
2023/09/12 01:41:44;;;;;;;10.53;9.43;;;21.30;99.90;;;;;;10302461;28;20306;-82
2023/09/12 01:46:49;;;;;;;10.60;9.53;;;21.30;99.90;;;;;;10287779;28;20259;-82
2023/09/12 01:51:52;;;;;;;9.60;8.67;;;21.30;99.90;;;;;;10304612;28;20693;-82
2023/09/12 01:56:57;;;;;;;10.90;9.27;;;21.20;99.90;;;;;;10287815;28;20205;-82
2023/09/12 02:02:00;;;;;;;11.10;9.17;;;21.20;99.90;;;;;;10302083;28;20327;-82
2023/09/12 02:07:03;;;;;;;11.13;9.30;;;21.20;99.90;;;;;;10323079;28;20280;-82
2023/09/12 02:12:05;;;;;;;11.13;10.13;;;21.10;99.90;;;;;;10327417;28;20236;-81
2023/09/12 02:17:09;;;;;;;9.80;8.80;;;21.10;99.90;;;;;;10339144;28;20228;-82
2023/09/12 02:22:11;;;;;;;10.23;9.23;;;21.10;99.90;;;;;;10358825;28;20216;-82
2023/09/12 02:27:13;;;;;;;10.80;9.00;;;21.10;99.90;;;;;;10316857;28;20205;-82
2023/09/12 02:32:17;;;;;;;10.03;9.03;;;21.00;99.90;;;;;;10300224;28;20208;-82
2023/09/12 02:37:19;;;;;;;11.07;9.30;;;21.00;99.90;;;;;;10336875;28;20549;-82
2023/09/12 02:42:21;;;;;;;8.70;7.80;;;21.00;99.90;;;;;;10308611;28;20234;-82
2023/09/12 02:47:24;;;;;;;11.07;9.70;;;21.00;99.90;;;;;;10295504;28;20239;-82
2023/09/12 02:52:29;;;;;;;11.30;9.27;;;21.00;99.90;;;;;;10296787;28;20219;-81
2023/09/12 02:57:31;;;;;;;10.30;9.20;;;20.90;99.90;;;;;;10295201;28;20207;-82
2023/09/12 03:02:35;;;;;;;9.77;8.87;;;20.90;99.90;;;;;;10309751;28;20227;-81
2023/09/12 03:07:37;;;;;;;11.00;9.47;;;20.90;99.90;;;;;;10333723;28;20200;-82
2023/09/12 03:12:39;;;;;;;14.97;9.80;;;20.90;99.90;;;;;;10319656;28;20370;-82
2023/09/12 03:17:43;;;;;;;10.20;9.17;;;20.90;99.90;;;;;;10296433;28;20272;-82
2023/09/12 03:22:46;;;;;;;12.17;11.03;;;20.80;99.90;;;;;;10296733;28;20271;-82
2023/09/12 03:27:48;;;;;;;12.30;11.07;;;20.80;99.90;;;;;;10313220;28;20211;-82
2023/09/12 03:32:52;;;;;;;11.17;9.77;;;20.70;99.90;;;;;;10311883;28;20218;-82
2023/09/12 03:37:54;;;;;;;10.57;9.53;;;20.80;99.90;;;;;;10334448;28;20295;-82
2023/09/12 03:42:56;;;;;;;9.57;8.77;;;20.70;99.90;;;;;;10292832;28;20229;-82
2023/09/12 03:48:00;;;;;;;11.07;10.07;;;20.70;99.90;;;;;;10306925;28;20273;-82
2023/09/12 03:53:02;;;;;;;10.70;8.83;;;20.70;99.90;;;;;;10291514;28;20513;-82
2023/09/12 03:58:05;;;;;;;12.70;10.47;;;20.70;99.90;;;;;;10309631;28;20205;-82
2023/09/12 04:03:09;;;;;;;10.20;9.30;;;20.70;99.90;;;;;;10289947;28;20228;-80
2023/09/12 04:08:11;;;;;;;12.17;9.60;;;20.70;99.90;;;;;;10316516;28;20196;-82
2023/09/12 04:13:14;;;;;;;11.30;10.30;;;20.60;99.90;;;;;;10323187;28;20282;-82
2023/09/12 04:18:17;;;;;;;11.90;10.80;;;20.60;99.90;;;;;;10319141;28;20668;-82
2023/09/12 04:23:19;;;;;;;13.80;10.87;;;20.60;99.90;;;;;;10325644;28;20231;-82
2023/09/12 04:28:21;;;;;;;10.97;9.87;;;20.50;99.90;;;;;;10320590;28;20251;-82
2023/09/12 04:33:25;;;;;;;10.93;9.50;;;20.60;99.90;;;;;;10292111;28;20745;-82
2023/09/12 04:38:27;;;;;;;13.03;10.93;;;20.50;99.90;;;;;;10318008;28;20208;-82
2023/09/12 04:43:30;;;;;;;13.60;10.77;;;20.50;99.90;;;;;;10328585;28;20231;-82
2023/09/12 04:48:33;;;;;;;11.00;9.90;;;20.50;99.90;;;;;;10330350;28;20322;-82
2023/09/12 04:53:36;;;;;;;11.17;9.77;;;20.50;99.90;;;;;;10344442;28;20220;-81
2023/09/12 04:58:39;;;;;;;11.10;10.00;;;20.50;99.90;;;;;;10313458;28;20212;-82
2023/09/12 05:03:43;;;;;;;10.80;9.80;;;20.50;99.90;;;;;;10314531;28;20311;-82
2023/09/12 05:08:46;;;;;;;14.63;11.50;;;20.50;99.90;;;;;;10340550;28;20227;-82
2023/09/12 05:13:48;;;;;;;11.40;10.20;;;20.60;99.90;;;;;;10339138;28;20292;-82
2023/09/12 05:18:51;;;;;;;11.20;10.10;;;20.60;99.90;;;;;;10312780;28;20669;-82
2023/09/12 05:23:54;;;;;;;10.83;9.77;;;20.60;99.90;;;;;;10287838;28;20250;-82
2023/09/12 05:28:56;;;;;;;12.80;10.63;;;20.60;99.90;;;;;;10293474;28;20690;-82
2023/09/12 05:34:00;;;;;;;11.97;10.30;;;20.70;99.90;;;;;;10288503;28;20891;-82
2023/09/12 05:39:03;;;;;;;13.17;10.73;;;20.70;99.90;;;;;;10324274;28;20685;-82
2023/09/12 05:44:06;;;;;;;11.80;10.60;;;20.80;99.90;;;;;;10331023;28;20219;-82
2023/09/12 05:49:10;;;;;;;11.50;10.27;;;20.80;99.90;;;;;;10341887;28;20200;-82
2023/09/12 05:54:13;;;;;;;10.87;9.67;;;20.90;99.90;;;;;;10336673;28;20250;-82
2023/09/12 05:59:15;;;;;;;10.30;8.90;;;21.10;99.90;;;;;;10296175;28;20300;-82
2023/09/12 06:04:19;;;;;;;11.70;10.60;;;21.30;99.90;;;;;;10291727;28;20701;-82
2023/09/12 06:09:21;;;;;;;12.70;10.60;;;21.60;99.90;;;;;;10319309;28;20287;-81
2023/09/12 06:14:24;;;;;;;12.93;10.87;;;21.80;99.90;;;;;;10343072;23;20235;-80
2023/09/12 06:19:28;;;;;;;11.03;10.00;;;22.00;99.90;;;;;;10305285;28;20593;-80
2023/09/12 06:24:30;;;;;;;13.37;11.33;;;22.10;99.90;;;;;;10332577;28;20220;-79
2023/09/12 06:29:32;;;;;;;12.53;10.63;;;22.20;99.90;;;;;;10335690;28;20204;-80
2023/09/12 06:34:35;;;;;;;13.20;11.90;;;22.20;99.90;;;;;;10314766;28;20232;-80
2023/09/12 06:39:37;;;;;;;13.90;11.60;;;22.30;99.90;;;;;;10321169;28;20282;-80
2023/09/12 06:44:39;;;;;;;15.53;12.20;;;22.40;99.90;;;;;;10313644;28;20221;-80
2023/09/12 06:49:43;;;;;;;13.23;10.97;;;22.50;99.90;;;;;;10330379;28;20195;-80
2023/09/12 06:54:45;;;;;;;12.83;11.23;;;22.50;99.90;;;;;;10304089;28;20581;-81
2023/09/12 06:59:48;;;;;;;13.60;12.20;;;22.60;99.90;;;;;;10321486;28;20219;-80
2023/09/12 07:04:51;;;;;;;15.23;11.80;;;22.70;99.90;;;;;;10340203;28;20254;-80
2023/09/12 07:09:53;;;;;;;14.07;11.03;;;22.80;99.90;;;;;;10305359;28;20200;-80
2023/09/12 07:14:55;;;;;;;13.43;10.73;;;22.90;99.90;;;;;;10319203;28;20282;-81
2023/09/12 07:19:59;;;;;;;14.47;11.17;;;23.00;99.90;;;;;;10323504;28;20563;-81
2023/09/12 07:25:01;;;;;;;12.23;11.13;;;23.10;99.90;;;;;;10304742;28;20221;-80
2023/09/12 07:30:04;;;;;;;12.00;10.80;;;23.30;99.90;;;;;;10318151;28;20767;-80
2023/09/12 07:35:08;;;;;;;15.43;11.00;;;23.40;99.90;;;;;;10318715;28;20224;-80
2023/09/12 07:40:11;;;;;;;10.57;9.57;;;23.40;99.90;;;;;;10318019;28;20231;-80
2023/09/12 07:45:14;;;;;;;11.10;9.80;;;23.40;99.90;;;;;;10324983;28;20248;-80
2023/09/12 07:50:17;;;;;;;12.70;11.43;;;23.30;99.90;;;;;;10323656;28;20204;-81
2023/09/12 07:55:19;;;;;;;16.17;10.50;;;23.30;99.90;;;;;;10331604;28;20267;-80
2023/09/12 08:00:22;;;;;;;11.43;10.23;;;23.40;99.90;;;;;;10324532;28;20223;-80
2023/09/12 08:05:25;;;;;;;14.03;9.90;;;23.50;99.90;;;;;;10314675;28;20220;-79
2023/09/12 08:10:27;;;;;;;9.80;9.00;;;23.70;99.90;;;;;;10322975;28;20199;-81
2023/09/12 08:15:29;;;;;;;11.03;10.03;;;23.90;99.90;;;;;;10315357;28;20214;-81
2023/09/12 08:20:33;;;;;;;10.80;10.00;;;24.10;99.90;;;;;;10331940;28;20356;-81
2023/09/12 08:25:35;;;;;;;13.13;10.27;;;24.30;99.90;;;;;;10321916;28;20204;-81
2023/09/12 08:36:08;;;;;;;12.67;9.73;;;24.60;99.90;;;;;;11725583;23;20658;-81
2023/09/12 08:41:17;;;;;;;10.50;9.60;;;24.70;99.90;;;;;;11323155;23;20288;-81
2023/09/12 08:46:21;;;;;;;12.90;10.23;;;24.80;99.90;;;;;;10303473;28;20232;-80
2023/09/12 08:51:24;;;;;;;16.60;10.53;;;24.90;99.90;;;;;;10334737;28;20224;-82
2023/09/12 08:56:27;;;;;;;11.23;10.13;;;24.80;99.90;;;;;;10338905;28;20222;-80
2023/09/12 09:01:32;;;;;;;10.07;9.17;;;24.70;99.90;;;;;;10338472;28;20250;-82
2023/09/12 09:06:39;;;;;;;11.70;10.70;;;24.60;99.90;;;;;;10338495;28;20211;-82
2023/09/12 09:11:41;;;;;;;12.23;11.13;;;24.50;99.90;;;;;;10338322;28;20228;-80
2023/09/12 09:16:43;;;;;;;11.03;10.13;;;24.40;99.90;;;;;;10336452;28;20223;-81
2023/09/12 09:21:46;;;;;;;11.30;10.20;;;24.40;99.90;;;;;;10338114;28;20227;-82
2023/09/12 09:26:50;;;;;;;11.13;10.13;;;24.40;99.90;;;;;;10337382;28;20196;-82
2023/09/12 09:31:53;;;;;;;10.50;9.60;;;24.40;99.90;;;;;;10337636;28;20710;-82
2023/09/12 09:36:57;;;;;;;11.40;10.40;;;24.40;99.90;;;;;;10338243;28;20196;-82
2023/09/12 09:42:00;;;;;;;11.37;10.33;;;24.50;99.90;;;;;;10337032;28;20220;-82
2023/09/12 09:47:02;;;;;;;10.87;9.87;;;24.70;99.90;;;;;;10337449;28;20204;-82
2023/09/12 09:52:06;;;;;;;15.80;10.70;;;24.90;99.90;;;;;;10336914;28;20279;-81
2023/09/12 09:57:08;;;;;;;11.83;10.57;;;25.20;99.90;;;;;;10337494;28;20196;-81
2023/09/12 10:02:18;;;;;;;10.10;9.20;;;25.50;99.90;;;;;;10339003;28;20227;-81
2023/09/12 10:07:22;;;;;;;10.37;9.27;;;25.70;99.90;;;;;;10339921;28;20199;-82
2023/09/12 10:12:28;;;;;;;11.80;10.60;;;25.70;99.90;;;;;;10337016;28;20234;-81
2023/09/12 10:17:36;;;;;;;11.20;10.00;;;25.70;99.90;;;;;;10335066;28;20294;-81
2023/09/12 10:22:44;;;;;;;11.37;10.27;;;25.70;99.90;;;;;;10335444;28;20228;-81
2023/09/12 10:27:47;;;;;;;10.87;9.87;;;25.70;99.90;;;;;;10330816;28;20272;-81
2023/09/12 10:32:50;;;;;;;11.50;10.50;;;25.70;99.90;;;;;;10313143;28;20722;-82
2023/09/12 10:37:58;;;;;;;14.40;10.50;;;25.70;99.90;;;;;;10335587;28;20295;-82
2023/09/12 10:43:05;;;;;;;11.10;9.77;;;25.70;99.90;;;;;;10336444;28;20235;-82
2023/09/12 10:48:07;;;;;;;13.33;11.40;;;25.70;99.90;;;;;;10336487;28;20741;-82
2023/09/12 10:53:12;;;;;;;10.57;9.57;;;25.70;99.90;;;;;;10337448;28;20212;-82
2023/09/12 10:58:14;;;;;;;11.77;10.57;;;25.80;99.90;;;;;;10327754;28;20697;-82
2023/09/12 11:03:39;;;;;;;10.67;9.67;;;25.80;99.90;;;;;;10311513;28;20310;-82
2023/09/12 11:08:43;;;;;;;9.70;8.90;;;25.80;99.90;;;;;;10338026;28;20207;-82
2023/09/12 11:13:46;;;;;;;11.23;10.07;;;25.80;99.90;;;;;;10337079;28;20220;-82
2023/09/12 11:19:13;;;;;;;11.90;10.00;;;25.80;99.90;;;;;;10343130;28;20242;-82
2023/09/12 11:24:18;;;;;;;11.10;9.47;;;25.90;99.90;;;;;;10346839;28;20220;-82
2023/09/12 11:29:20;;;;;;;11.30;10.27;;;26.00;99.90;;;;;;10327874;28;20589;-82
2023/09/12 11:34:23;;;;;;;11.07;9.53;;;26.00;99.80;;;;;;10326455;28;20281;-82
2023/09/12 11:39:30;;;;;;;10.77;9.17;;;26.00;99.90;;;;;;10345992;28;20269;-82
2023/09/12 11:44:32;;;;;;;12.87;10.00;;;25.90;99.50;;;;;;10344942;28;20278;-81
2023/09/12 11:49:38;;;;;;;16.07;10.13;;;26.00;98.90;;;;;;10344307;28;20231;-82
2023/09/12 11:54:42;;;;;;;10.90;10.00;;;26.00;99.40;;;;;;10348989;28;20223;-81
2023/09/12 11:59:48;;;;;;;11.83;9.00;;;26.10;98.30;;;;;;10365099;28;20263;-81
2023/09/12 12:04:51;;;;;;;9.60;8.70;;;26.20;99.00;;;;;;10366843;28;20813;-82
2023/09/12 12:09:54;;;;;;;9.80;8.90;;;26.20;98.20;;;;;;10349122;28;20270;-82
2023/09/12 12:14:56;;;;;;;9.67;8.60;;;26.30;98.30;;;;;;10344678;28;20252;-82
2023/09/12 12:19:58;;;;;;;9.40;8.37;;;26.40;98.40;;;;;;10344139;28;20214;-82
2023/09/12 12:25:07;;;;;;;11.60;9.40;;;26.40;98.10;;;;;;10332864;28;20240;-82
2023/09/12 12:30:11;;;;;;;9.63;8.73;;;26.50;97.20;;;;;;10342001;28;20200;-81
2023/09/12 12:35:18;;;;;;;9.97;8.97;;;26.60;97.30;;;;;;10337264;28;20224;-82
2023/09/12 12:40:21;;;;;;;9.23;8.20;;;26.70;96.40;;;;;;10340897;28;20725;-82
2023/09/12 12:45:24;;;;;;;10.33;8.80;;;26.80;97.10;;;;;;10339546;28;20223;-82
2023/09/12 12:50:27;;;;;;;9.30;6.73;;;26.80;97.00;;;;;;10339105;28;20258;-80
2023/09/12 12:55:34;;;;;;;9.40;8.50;;;26.90;97.10;;;;;;10331630;28;20690;-80
2023/09/12 13:00:37;;;;;;;9.23;7.57;;;27.00;96.80;;;;;;10327217;28;20284;-82
2023/09/12 13:05:40;;;;;;;7.80;7.10;;;27.10;96.00;;;;;;10335631;28;20212;-82
2023/09/12 13:10:44;;;;;;;9.50;7.60;;;27.20;95.60;;;;;;10341860;28;20208;-81
2023/09/12 13:15:46;;;;;;;7.57;6.97;;;27.30;95.00;;;;;;10336254;28;20270;-81
2023/09/12 13:20:48;;;;;;;7.37;6.73;;;27.50;94.60;;;;;;10310591;28;20476;-81
2023/09/12 13:25:52;;;;;;;10.23;7.70;;;27.70;93.70;;;;;;10332353;28;20208;-81
2023/09/12 13:30:54;;;;;;;10.00;8.00;;;27.90;94.10;;;;;;10333408;28;20208;-82
2023/09/12 13:35:56;;;;;;;7.40;6.77;;;28.00;93.60;;;;;;10334232;28;20610;-81
2023/09/12 13:40:59;;;;;;;7.03;6.00;;;28.00;93.10;;;;;;10334184;28;20224;-81
2023/09/12 13:46:02;;;;;;;9.40;8.50;;;27.90;93.60;;;;;;10333660;28;20228;-82
2023/09/12 13:51:04;;;;;;;9.73;6.63;;;27.80;93.60;;;;;;10336173;28;20212;-82
2023/09/12 13:56:08;;;;;;;6.77;6.23;;;27.70;93.10;;;;;;10332341;28;20200;-82
2023/09/12 14:01:10;;;;;;;7.20;6.70;;;27.60;93.70;;;;;;10336935;28;20230;-81
2023/09/12 14:06:12;;;;;;;8.57;7.80;;;27.50;93.90;;;;;;10332916;28;20585;-81
2023/09/12 14:11:16;;;;;;;8.37;7.47;;;27.40;93.90;;;;;;10332123;28;20306;-81
2023/09/12 14:16:18;;;;;;;8.33;7.73;;;27.30;95.10;;;;;;10332789;28;20220;-82
2023/09/12 14:21:20;;;;;;;8.97;8.07;;;27.30;93.90;;;;;;10338541;28;20255;-81
2023/09/12 14:26:23;;;;;;;7.87;7.17;;;27.30;94.70;;;;;;10334946;28;20262;-81
2023/09/12 14:31:25;;;;;;;10.10;8.30;;;27.20;94.80;;;;;;10312104;28;20247;-81
2023/09/12 14:36:28;;;;;;;9.00;8.20;;;27.10;95.20;;;;;;10330339;28;20206;-81
2023/09/12 14:41:31;;;;;;;8.93;8.10;;;27.00;95.50;;;;;;10328062;28;20223;-81
2023/09/12 14:46:33;;;;;;;9.07;8.27;;;26.90;96.30;;;;;;10331895;28;20208;-81
2023/09/12 14:51:35;;;;;;;8.60;7.80;;;26.80;96.70;;;;;;10302717;28;20266;-81
2023/09/12 14:56:41;;;;;;;8.23;6.73;;;26.90;96.30;;;;;;10345146;28;20204;-81
2023/09/12 15:01:43;;;;;;;8.00;7.30;;;26.90;96.20;;;;;;10340601;28;20254;-82
2023/09/12 15:06:45;;;;;;;9.93;7.50;;;26.90;95.80;;;;;;10343586;28;20211;-82
2023/09/12 15:11:49;;;;;;;8.73;7.60;;;27.00;95.70;;;;;;10344377;28;20220;-81
2023/09/12 15:16:51;;;;;;;8.13;7.43;;;27.00;95.80;;;;;;10339658;28;20210;-81
2023/09/12 15:21:53;;;;;;;8.53;7.77;;;27.10;96.30;;;;;;10337015;28;20266;-81
2023/09/12 15:26:57;;;;;;;8.30;7.60;;;27.10;96.40;;;;;;10338943;28;20572;-81
2023/09/12 15:32:01;;;;;;;9.30;7.47;;;27.20;96.20;;;;;;10335114;28;20242;-82
2023/09/12 15:37:11;;;;;;;9.10;8.30;;;27.30;95.00;;;;;;10343059;28;20204;-82
2023/09/12 15:42:14;;;;;;;7.67;6.97;;;27.40;95.00;;;;;;10337868;28;20224;-82
2023/09/12 15:47:16;;;;;;;9.37;8.47;;;27.30;95.80;;;;;;10343901;28;20618;-82
2023/09/12 15:52:18;;;;;;;9.80;8.90;;;27.10;97.00;;;;;;10336990;28;20223;-82
2023/09/12 15:57:22;;;;;;;8.93;8.03;;;26.90;98.10;;;;;;10339882;28;20701;-82
2023/09/12 16:02:24;;;;;;;9.57;8.53;;;26.70;98.80;;;;;;10335406;28;20239;-82
2023/09/12 16:07:26;;;;;;;10.97;7.97;;;26.40;99.70;;;;;;10335630;28;20251;-80
2023/09/12 16:12:30;;;;;;;8.50;7.80;;;26.20;99.20;;;;;;10335092;28;20630;-82
2023/09/12 16:17:32;;;;;;;13.20;7.80;;;26.20;99.40;;;;;;10339007;28;20200;-81
2023/09/12 16:22:34;;;;;;;8.20;7.50;;;26.30;99.00;;;;;;10334193;28;20609;-80
2023/09/12 16:27:38;;;;;;;11.50;7.90;;;26.30;98.80;;;;;;10335867;28;20215;-81
2023/09/12 16:32:40;;;;;;;9.47;8.10;;;26.30;99.30;;;;;;10336381;28;20208;-82
2023/09/12 16:37:42;;;;;;;8.83;8.03;;;26.40;99.30;;;;;;10338857;28;20200;-82
2023/09/12 16:42:46;;;;;;;8.23;7.63;;;26.40;99.20;;;;;;10335169;28;20226;-81
2023/09/12 16:47:48;;;;;;;9.47;8.50;;;26.40;98.90;;;;;;10336439;28;20667;-80
2023/09/12 16:52:50;;;;;;;8.60;7.73;;;26.50;98.70;;;;;;10337612;28;20215;-81
2023/09/12 16:57:55;;;;;;;8.20;7.50;;;26.50;98.50;;;;;;10336447;28;20202;-82
2023/09/12 17:02:57;;;;;;;8.80;7.53;;;26.60;98.60;;;;;;10333808;28;20649;-82
2023/09/12 17:07:59;;;;;;;11.03;8.53;;;26.60;98.50;;;;;;10329812;28;20278;-82
2023/09/12 17:13:03;;;;;;;8.73;8.00;;;26.60;97.70;;;;;;10331722;28;20220;-82
2023/09/12 17:18:05;;;;;;;9.40;8.43;;;26.60;97.00;;;;;;10337758;28;20200;-80
2023/09/12 17:23:08;;;;;;;7.80;7.10;;;26.50;96.90;;;;;;10336641;28;20228;-82
2023/09/12 17:28:11;;;;;;;8.73;7.93;;;26.30;97.10;;;;;;10334064;28;20742;-81
2023/09/12 17:33:14;;;;;;;7.80;7.07;;;26.20;97.40;;;;;;10316856;28;20306;-81
2023/09/12 17:38:16;;;;;;;7.90;7.20;;;26.00;98.20;;;;;;10333330;28;20201;-81
2023/09/12 17:43:19;;;;;;;7.90;7.30;;;25.80;98.00;;;;;;10333736;28;20725;-81
2023/09/12 17:48:21;;;;;;;6.70;6.20;;;25.60;97.80;;;;;;10336428;28;20227;-81
2023/09/12 17:53:23;;;;;;;8.23;7.43;;;25.50;96.80;;;;;;10335706;28;20215;-82
2023/09/12 17:58:27;;;;;;;8.40;6.40;;;25.50;96.20;;;;;;10335026;28;20208;-82
2023/09/12 18:03:29;;;;;;;12.17;7.23;;;25.30;97.80;;;;;;10335786;28;20228;-82
2023/09/12 18:08:31;;;;;;;7.80;6.93;;;25.20;96.50;;;;;;10333251;28;20654;-81
2023/09/12 18:13:35;;;;;;;6.87;6.37;;;25.10;97.90;;;;;;10336145;28;20212;-82
2023/09/12 18:18:37;;;;;;;7.37;6.60;;;25.00;98.60;;;;;;10332566;28;20204;-80
2023/09/12 18:23:42;;;;;;;7.90;7.20;;;24.90;99.60;;;;;;10331028;28;20294;-81
2023/09/12 18:28:49;;;;;;;7.00;6.40;;;24.80;99.90;;;;;;10320329;28;20209;-82
2023/09/12 18:33:51;;;;;;;8.20;7.37;;;24.70;99.90;;;;;;10329491;28;20215;-82
2023/09/12 18:38:53;;;;;;;8.47;7.00;;;24.50;98.50;;;;;;10332214;28;20620;-82
2023/09/12 18:43:57;;;;;;;8.07;7.27;;;24.50;98.30;;;;;;10327797;28;20228;-82
2023/09/12 18:48:59;;;;;;;7.70;6.90;;;24.40;98.10;;;;;;10311145;28;20295;-81
2023/09/12 18:54:01;;;;;;;7.57;6.80;;;24.40;97.50;;;;;;10332617;28;20778;-81
2023/09/12 18:59:05;;;;;;;10.50;7.30;;;24.40;97.40;;;;;;10332213;28;20204;-80
2023/09/12 19:04:22;;;;;;;7.47;6.70;;;24.40;97.40;;;;;;10334474;28;20230;-82
2023/09/12 19:09:24;;;;;;;7.20;6.60;;;24.40;97.60;;;;;;10316226;28;20210;-82
2023/09/12 19:14:28;;;;;;;7.40;6.63;;;24.30;97.80;;;;;;10334510;28;20244;-82
2023/09/12 19:19:30;;;;;;;7.83;6.67;;;24.30;98.20;;;;;;10316225;28;20294;-82
2023/09/12 19:24:32;;;;;;;6.83;6.30;;;24.20;97.90;;;;;;10332116;28;20290;-81
2023/09/12 19:29:49;;;;;;;7.97;6.97;;;24.30;97.20;;;;;;10334163;28;20261;-82
2023/09/12 19:34:51;;;;;;;7.60;6.90;;;24.30;96.80;;;;;;10298743;28;20270;-80
2023/09/12 19:39:53;;;;;;;6.80;6.17;;;24.30;96.40;;;;;;10339659;28;20670;-80
2023/09/12 19:44:57;;;;;;;7.60;7.00;;;24.30;96.40;;;;;;10344529;28;20234;-80
2023/09/12 19:49:59;;;;;;;7.47;5.87;;;24.40;96.40;;;;;;10330992;28;20199;-81
2023/09/12 19:55:01;;;;;;;10.07;6.63;;;24.30;96.10;;;;;;10343341;28;20737;-82
2023/09/12 20:00:07;;;;;;;6.73;6.23;;;24.30;96.40;;;;;;10318660;28;20208;-80
2023/09/12 20:05:09;;;;;;;7.00;6.40;;;24.30;96.50;;;;;;10341176;28;20227;-80
2023/09/12 20:10:11;;;;;;;7.03;6.10;;;24.20;96.70;;;;;;10340493;28;20223;-82
2023/09/12 20:15:15;;;;;;;9.50;6.37;;;24.20;96.20;;;;;;10340951;28;20215;-81
2023/09/12 20:20:18;;;;;;;6.90;6.30;;;24.20;96.30;;;;;;10341807;28;20202;-81
2023/09/12 20:25:21;;;;;;;7.10;6.40;;;24.10;96.40;;;;;;10340308;28;20618;-81
2023/09/12 20:30:24;;;;;;;10.07;6.10;;;24.10;96.30;;;;;;10341204;28;20307;-80
2023/09/12 20:35:27;;;;;;;7.00;6.30;;;24.10;96.30;;;;;;10342169;28;20285;-81
2023/09/12 20:40:30;;;;;;;7.33;6.73;;;24.10;95.70;;;;;;10340463;28;20208;-79
2023/09/12 20:45:34;;;;;;;7.00;6.30;;;24.10;95.90;;;;;;10336547;28;20265;-81
2023/09/12 20:50:36;;;;;;;6.73;5.90;;;24.00;96.40;;;;;;10341061;28;20268;-81
2023/09/12 20:55:38;;;;;;;7.60;6.73;;;24.00;96.40;;;;;;10341855;28;20216;-81
2023/09/12 21:00:43;;;;;;;6.43;5.80;;;24.00;96.80;;;;;;10341381;28;20199;-81
2023/09/12 21:05:45;;;;;;;6.97;6.20;;;23.90;97.80;;;;;;10341735;28;20269;-81
2023/09/12 21:10:48;;;;;;;7.23;6.50;;;23.90;98.50;;;;;;10341876;28;20208;-81
2023/09/12 21:15:51;;;;;;;7.20;6.60;;;23.80;98.20;;;;;;10340391;28;20572;-81
2023/09/12 21:20:53;;;;;;;7.93;7.23;;;23.70;97.40;;;;;;10365120;28;20224;-78
2023/09/12 21:25:57;;;;;;;8.63;6.13;;;23.60;97.30;;;;;;10351136;28;20216;-79
2023/09/12 21:31:00;;;;;;;7.90;7.20;;;23.60;97.20;;;;;;10333686;28;20226;-80
2023/09/12 21:36:02;;;;;;;7.33;5.87;;;23.50;97.40;;;;;;10339051;28;20834;-81
2023/09/12 21:41:05;;;;;;;7.73;6.70;;;23.50;97.80;;;;;;10337213;28;20293;-81
2023/09/12 21:46:08;;;;;;;13.00;6.60;;;23.40;98.10;;;;;;10338738;28;20212;-80
2023/09/12 21:51:10;;;;;;;7.47;6.87;;;23.40;98.00;;;;;;10337116;28;20271;-81
2023/09/12 21:56:12;;;;;;;6.60;6.00;;;23.30;97.70;;;;;;10337331;28;20203;-79
2023/09/12 22:01:16;;;;;;;6.93;6.43;;;23.20;97.70;;;;;;10333102;28;20235;-81
2023/09/12 22:06:18;;;;;;;7.47;6.77;;;23.20;98.20;;;;;;10336284;28;20228;-80
2023/09/12 22:11:20;;;;;;;6.70;6.20;;;23.10;98.20;;;;;;10335157;28;20640;-81
2023/09/12 22:16:24;;;;;;;7.23;6.53;;;23.10;97.90;;;;;;10333474;28;20579;-80
2023/09/12 22:21:26;;;;;;;9.40;6.63;;;23.00;97.70;;;;;;10335304;28;20215;-81
2023/09/12 22:26:28;;;;;;;7.10;6.50;;;22.90;98.20;;;;;;10336250;28;20314;-81
2023/09/12 22:31:32;;;;;;;7.83;7.13;;;22.90;98.20;;;;;;10334698;28;20227;-81
2023/09/12 22:36:34;;;;;;;7.37;6.50;;;23.00;98.30;;;;;;10336737;28;20243;-80
2023/09/12 22:41:36;;;;;;;6.23;5.80;;;23.00;98.30;;;;;;10334791;28;20558;-80
2023/09/12 22:46:40;;;;;;;7.93;6.90;;;23.00;98.30;;;;;;10328557;28;20423;-80
2023/09/12 22:51:42;;;;;;;6.80;6.30;;;23.00;98.20;;;;;;10332726;28;20651;-81
2023/09/12 22:56:44;;;;;;;7.77;5.90;;;23.00;98.00;;;;;;10332319;28;20689;-80
2023/09/12 23:01:48;;;;;;;7.93;6.40;;;23.00;98.10;;;;;;10325475;28;20228;-81
2023/09/12 23:06:50;;;;;;;6.30;5.80;;;23.00;98.20;;;;;;10333771;28;20228;-80
2023/09/12 23:11:52;;;;;;;8.73;5.93;;;23.00;98.30;;;;;;10336765;28;20224;-80
2023/09/12 23:16:55;;;;;;;6.40;5.90;;;23.10;98.30;;;;;;10341754;28;20196;-79
2023/09/12 23:21:57;;;;;;;7.57;6.17;;;23.10;97.80;;;;;;10340692;28;20230;-80
2023/09/12 23:27:02;;;;;;;7.43;6.77;;;23.10;97.70;;;;;;10342335;28;20226;-81
2023/09/12 23:32:06;;;;;;;6.30;5.73;;;23.10;97.70;;;;;;10329513;28;20234;-80
2023/09/12 23:37:08;;;;;;;6.00;5.50;;;23.20;97.80;;;;;;10341280;28;20283;-79
2023/09/12 23:42:10;;;;;;;7.10;6.43;;;23.30;98.90;;;;;;10339792;28;20642;-81
2023/09/12 23:47:14;;;;;;;6.77;6.13;;;23.30;99.00;;;;;;10343119;28;20295;-80
2023/09/12 23:52:16;;;;;;;8.63;6.00;;;23.30;99.10;;;;;;10340861;28;20228;-80
2023/09/12 23:57:18;;;;;;;7.20;6.57;;;23.40;99.20;;;;;;10341036;28;20204;-80
